createdAt,value
2018-12-31T00:02:56.452Z,1.91
2018-12-31T00:08:00.540Z,1.88
2018-12-31T00:13:04.535Z,1.78
2018-12-31T00:18:09.096Z,1.81
2018-12-31T00:23:13.479Z,1.69
2018-12-31T00:28:18.391Z,1.66
2018-12-31T00:33:22.696Z,1.71
2018-12-31T00:38:26.770Z,2.05
2018-12-31T00:43:30.883Z,2.09
2018-12-31T00:48:35.169Z,2.46
2018-12-31T00:53:39.474Z,2.51
2018-12-31T00:58:43.582Z,2.68
2018-12-31T01:03:47.578Z,2.78
2018-12-31T01:08:52.200Z,2.86
2018-12-31T01:13:56.263Z,2.94
2018-12-31T01:19:00.307Z,3.01
2018-12-31T01:24:04.338Z,3.15
2018-12-31T01:29:08.643Z,3.25
2018-12-31T01:34:12.694Z,3.20
2018-12-31T01:39:16.749Z,3.18
2018-12-31T01:44:20.786Z,3.14
2018-12-31T01:49:24.910Z,3.12
2018-12-31T01:54:29.045Z,3.19
2018-12-31T01:59:33.056Z,3.21
2018-12-31T02:04:37.147Z,3.20
2018-12-31T02:09:41.475Z,3.25
2018-12-31T02:14:45.795Z,3.26
2018-12-31T02:19:49.890Z,3.34
2018-12-31T02:24:53.952Z,3.33
2018-12-31T02:29:59.274Z,3.38
2018-12-31T02:35:03.338Z,3.40
2018-12-31T02:40:07.463Z,3.42
2018-12-31T02:45:12.088Z,3.46
2018-12-31T02:50:16.139Z,3.47
2018-12-31T02:55:20.179Z,3.51
2018-12-31T03:00:24.221Z,3.54
2018-12-31T03:05:28.288Z,3.55
2018-12-31T03:10:32.636Z,3.63
2018-12-31T03:15:36.647Z,3.64
2018-12-31T03:20:40.731Z,3.66
2018-12-31T03:25:45.324Z,3.65
2018-12-31T03:30:49.417Z,3.73
2018-12-31T03:35:53.447Z,3.69
2018-12-31T03:40:58.056Z,3.68
2018-12-31T03:46:02.391Z,3.72
2018-12-31T03:51:09.603Z,3.70
2018-12-31T03:56:13.827Z,3.72
2018-12-31T04:01:18.560Z,3.83
2018-12-31T04:06:23.191Z,3.77
2018-12-31T04:11:28.072Z,3.80
2018-12-31T04:16:32.117Z,3.86
2018-12-31T04:21:36.813Z,3.90
2018-12-31T04:26:41.510Z,3.87
2018-12-31T04:31:46.341Z,3.89
2018-12-31T04:36:51.267Z,3.90
2018-12-31T04:41:55.747Z,3.93
2018-12-31T04:47:01.102Z,3.94
2018-12-31T04:52:05.281Z,3.94
2018-12-31T04:57:10.183Z,3.98
2018-12-31T05:02:15.008Z,4.03
2018-12-31T05:07:19.330Z,4.08
2018-12-31T05:12:23.551Z,4.12
2018-12-31T05:17:27.916Z,4.20
2018-12-31T05:22:31.963Z,4.20
2018-12-31T05:27:36.017Z,4.19
2018-12-31T05:32:40.156Z,4.18
2018-12-31T05:37:44.215Z,4.20
2018-12-31T05:42:48.554Z,4.24
2018-12-31T05:47:52.613Z,4.22
2018-12-31T05:52:56.635Z,4.23
2018-12-31T05:58:00.667Z,4.25
2018-12-31T06:03:05.065Z,4.31
2018-12-31T06:08:10.090Z,4.39
2018-12-31T06:13:14.181Z,4.40
2018-12-31T06:18:18.318Z,4.44
2018-12-31T06:23:22.429Z,4.50
2018-12-31T06:28:26.550Z,4.61
2018-12-31T06:33:30.946Z,4.52
2018-12-31T06:38:35.123Z,4.53
2018-12-31T06:43:39.177Z,4.56
2018-12-31T06:48:43.245Z,4.55
2018-12-31T06:53:47.559Z,4.58
2018-12-31T06:58:51.612Z,4.62
2018-12-31T07:03:55.951Z,4.67
2018-12-31T07:09:00.033Z,4.60
2018-12-31T07:14:07.707Z,4.63
2018-12-31T07:19:11.792Z,4.65
2018-12-31T07:24:16.124Z,4.65
2018-12-31T07:29:20.435Z,4.68
2018-12-31T07:34:24.681Z,4.70
2018-12-31T07:39:29.180Z,4.75
2018-12-31T07:44:33.513Z,4.79
2018-12-31T07:49:38.192Z,4.83
2018-12-31T07:54:44.160Z,4.85
2018-12-31T07:59:48.349Z,4.85
2018-12-31T08:05:09.965Z,4.93
2018-12-31T08:10:31.971Z,4.97
2018-12-31T08:15:36.095Z,5.06
2018-12-31T08:20:40.208Z,5.14
2018-12-31T08:26:02.158Z,5.18
2018-12-31T08:31:24.507Z,5.29
2018-12-31T08:36:28.553Z,5.36
2018-12-31T08:41:50.489Z,5.45
2018-12-31T08:46:54.562Z,5.48
2018-12-31T08:51:58.659Z,5.50
2018-12-31T08:57:02.782Z,5.58
2018-12-31T09:02:06.849Z,5.65
2018-12-31T09:07:10.880Z,5.99
2018-12-31T09:12:14.995Z,5.84
2018-12-31T09:17:19.042Z,6.13
2018-12-31T09:22:23.170Z,6.31
2018-12-31T09:27:44.786Z,6.57
2018-12-31T09:32:48.890Z,6.60
2018-12-31T09:37:53.020Z,6.61
2018-12-31T09:42:57.098Z,6.72
2018-12-31T09:48:01.169Z,6.64
2018-12-31T09:53:23.180Z,6.66
2018-12-31T09:58:46.449Z,6.98
2018-12-31T10:03:50.489Z,7.15
2018-12-31T10:08:54.577Z,7.26
2018-12-31T10:13:58.639Z,7.11
2018-12-31T10:19:02.744Z,7.28
2018-12-31T10:24:06.819Z,7.43
2018-12-31T10:29:10.850Z,7.51
2018-12-31T10:34:14.961Z,7.61
2018-12-31T10:39:19.006Z,7.50
2018-12-31T10:44:24.131Z,7.63
2018-12-31T10:49:28.165Z,7.30
2018-12-31T10:54:32.221Z,7.26
2018-12-31T10:59:36.372Z,7.29
2018-12-31T11:04:40.733Z,7.31
2018-12-31T11:09:45.277Z,7.21
2018-12-31T11:14:49.472Z,7.38
2018-12-31T11:19:53.637Z,7.39
2018-12-31T11:24:57.742Z,7.73
2018-12-31T11:30:01.816Z,7.86
2018-12-31T11:35:06.438Z,7.77
2018-12-31T11:40:10.551Z,8.01
2018-12-31T11:45:14.632Z,8.24
2018-12-31T11:50:19.705Z,8.28
2018-12-31T11:55:23.775Z,7.96
2018-12-31T12:00:27.866Z,7.86
2018-12-31T12:05:31.924Z,8.00
2018-12-31T12:10:36.087Z,7.86
2018-12-31T12:15:40.263Z,7.92
2018-12-31T12:20:44.389Z,7.78
2018-12-31T12:25:48.398Z,7.88
2018-12-31T12:30:52.462Z,7.84
2018-12-31T12:35:56.611Z,8.10
2018-12-31T12:41:01.021Z,8.16
2018-12-31T12:46:05.187Z,8.22
2018-12-31T12:51:09.487Z,8.43
2018-12-31T12:56:13.545Z,8.81
2018-12-31T13:01:17.627Z,8.66
2018-12-31T13:06:22.099Z,7.96
2018-12-31T13:11:26.246Z,8.19
2018-12-31T13:16:30.297Z,8.55
2018-12-31T13:21:34.401Z,8.87
2018-12-31T13:26:43.629Z,8.77
2018-12-31T13:31:44.252Z,8.53
2018-12-31T13:36:48.404Z,8.30
2018-12-31T13:41:52.487Z,8.13
2018-12-31T13:46:56.561Z,8.12
2018-12-31T13:52:00.882Z,8.07
2018-12-31T13:57:04.975Z,7.96
2018-12-31T14:02:09.190Z,7.89
2018-12-31T14:07:13.227Z,7.79
2018-12-31T14:12:17.501Z,7.65
2018-12-31T14:17:21.620Z,7.54
2018-12-31T14:22:25.893Z,7.42
2018-12-31T14:27:30.061Z,7.39
2018-12-31T14:32:34.508Z,7.37
2018-12-31T14:37:38.607Z,7.31
2018-12-31T14:42:43.096Z,7.28
2018-12-31T14:47:47.113Z,7.12
2018-12-31T14:52:51.454Z,7.08
2018-12-31T14:57:55.524Z,7.15
2018-12-31T15:03:00.082Z,7.10
2018-12-31T15:08:04.810Z,6.98
2018-12-31T15:13:09.262Z,6.93
2018-12-31T15:18:13.460Z,6.80
2018-12-31T15:23:17.591Z,6.70
2018-12-31T15:28:21.791Z,6.61
2018-12-31T15:33:25.902Z,6.55
2018-12-31T15:38:30.265Z,6.55
2018-12-31T15:43:34.361Z,6.46
2018-12-31T15:48:38.533Z,6.47
2018-12-31T15:53:43.214Z,6.51
2018-12-31T15:58:47.874Z,6.49
2018-12-31T16:03:52.014Z,6.54
2018-12-31T16:08:56.061Z,6.51
2018-12-31T16:14:00.135Z,6.55
2018-12-31T16:19:04.249Z,6.50
2018-12-31T16:24:11.467Z,6.53
2018-12-31T16:29:30.916Z,6.54
2018-12-31T16:34:52.537Z,6.50
2018-12-31T16:40:14.455Z,6.48
2018-12-31T16:45:33.400Z,6.45
2018-12-31T16:50:55.383Z,6.48
2018-12-31T16:55:59.659Z,6.44
2018-12-31T17:01:03.680Z,6.41
2018-12-31T17:06:08.029Z,6.39
2018-12-31T17:11:12.275Z,6.38
2018-12-31T17:16:16.365Z,6.35
2018-12-31T17:21:20.440Z,6.45
2018-12-31T17:26:36.202Z,6.45
2018-12-31T17:31:40.238Z,6.63
2018-12-31T17:36:44.596Z,6.62
2018-12-31T17:41:48.748Z,6.63
2018-12-31T17:46:53.027Z,6.62
2018-12-31T17:51:57.090Z,6.64
2018-12-31T17:57:01.162Z,6.64
2018-12-31T18:02:25.240Z,6.67
2018-12-31T18:07:29.316Z,6.74
2018-12-31T18:12:33.376Z,6.67
2018-12-31T18:17:55.038Z,6.75
2018-12-31T18:22:59.099Z,6.73
2018-12-31T18:28:03.168Z,6.80
2018-12-31T18:33:07.291Z,6.86
2018-12-31T18:38:29.022Z,6.87
2018-12-31T18:43:51.061Z,6.91
2018-12-31T18:48:55.142Z,6.93
2018-12-31T18:53:59.436Z,6.97
2018-12-31T18:59:03.496Z,7.09
2018-12-31T19:04:07.563Z,7.15
2018-12-31T19:09:29.376Z,7.12
2018-12-31T19:14:51.289Z,7.14
2018-12-31T19:19:55.477Z,7.14
2018-12-31T19:24:59.626Z,7.19
2018-12-31T19:30:03.728Z,7.12
2018-12-31T19:35:07.732Z,7.11
2018-12-31T19:40:29.640Z,7.19
2018-12-31T19:45:33.755Z,7.22
2018-12-31T19:50:37.852Z,7.20
2018-12-31T19:55:42.258Z,7.27
2018-12-31T20:00:46.254Z,7.32
2018-12-31T20:05:50.312Z,7.34
2018-12-31T20:10:54.374Z,7.41
2018-12-31T20:15:58.884Z,7.47
2018-12-31T20:21:02.974Z,7.47
2018-12-31T20:26:07.002Z,7.44
2018-12-31T20:31:11.152Z,7.58
2018-12-31T20:36:15.185Z,7.65
2018-12-31T20:41:19.521Z,7.65
2018-12-31T20:46:23.588Z,7.68
2018-12-31T20:51:27.597Z,7.73
2018-12-31T20:56:31.737Z,7.73
2018-12-31T21:01:35.817Z,7.77
2018-12-31T21:06:39.932Z,7.79
2018-12-31T21:11:44.156Z,7.91
2018-12-31T21:16:48.225Z,7.80
2018-12-31T21:21:52.543Z,7.82
2018-12-31T21:26:56.633Z,7.92
2018-12-31T21:32:00.680Z,7.90
2018-12-31T21:37:04.731Z,7.89
2018-12-31T21:42:08.818Z,7.95
2018-12-31T21:47:12.823Z,7.91
2018-12-31T21:52:23.410Z,7.96
2018-12-31T21:57:28.465Z,7.94
2018-12-31T22:02:33.924Z,7.96
2018-12-31T22:07:40.758Z,7.92
2018-12-31T22:12:45.621Z,7.98
2018-12-31T22:17:50.648Z,7.99
2018-12-31T22:22:56.785Z,8.01
2018-12-31T22:28:01.939Z,8.02
2018-12-31T22:33:06.034Z,7.94
2018-12-31T22:38:10.774Z,7.97
2018-12-31T22:43:15.635Z,7.99
2018-12-31T22:48:21.674Z,8.08
2018-12-31T22:53:26.985Z,8.02
2018-12-31T22:58:32.293Z,8.03
2018-12-31T23:03:36.634Z,8.04
2018-12-31T23:08:40.761Z,8.07
2018-12-31T23:13:45.140Z,8.06
2018-12-31T23:18:49.702Z,8.09
2018-12-31T23:23:53.803Z,8.12
2018-12-31T23:28:58.277Z,8.21
2018-12-31T23:34:02.839Z,8.27
2018-12-31T23:39:07.343Z,8.27
2018-12-31T23:44:11.386Z,8.22
2018-12-31T23:49:15.644Z,8.28
2018-12-31T23:54:19.725Z,8.29
2018-12-31T23:59:23.766Z,8.20
